Terminal Aerodrome Forecast
Issued by NWS

Home | Current Version | Previous Version | Text Only | Print | Product List | Glossary On
Versions: 1 2 3 4 5 6 7 8 9 10 11 12 13 14 15 16 17 18 19 20 21 22 23 24
000
FTUS43 KIND 210500
TAFBMG
TAF
KBMG 210520Z 2106/2206 20004KT 6SM BR BKN100
     FM210900 22002KT 3SM -SHRA BR VCTS BKN050CB
     FM211700 24008KT P6SM SCT060 BKN150
     FM220200 21004KT P6SM SCT050
      AMD LTD TO CLD VIS AND WIND TIL 211300=

USA.gov is the U.S. government's official web portal to all federal, state and local government web resources and services.